Time;durP1;ratioP1;P1;durP2;ratioP2;P2;SDS_P1;SDS_P2;PMS_P1;PMS_P2;Temp;Humidity;BMP_temperature;BMP_pressure;BME280_temperature;BME280_humidity;BME280_pressure;Samples;Min_cycle;Max_cycle;Signal;HPM_P1;HPM_P2
2023/08/27 00:00:47;;;;;;;30.63;7.82;;;;;;;;;;5043339;28;20053;-66
2023/08/27 00:03:33;;;;;;;24.33;7.25;;;;;;;;;;5041740;28;20417;-67
2023/08/27 00:05:58;;;;;;;22.48;7.60;;;;;;;;;;5022491;28;20053;-67
2023/08/27 00:09:06;;;;;;;26.02;7.28;;;;;;;;;;5042820;28;20118;-66
2023/08/27 00:12:46;;;;;;;27.20;6.90;;;;;;;;;;5041704;28;20183;-66
2023/08/27 00:16:26;;;;;;;31.20;7.97;;;;;;;;;;5044629;28;20041;-67
2023/08/27 00:20:09;;;;;;;28.38;7.32;;;;;;;;;;5045603;28;20065;-67
2023/08/27 00:23:47;;;;;;;25.90;6.93;;;;;;;;;;5040410;28;20084;-66
2023/08/27 00:27:29;;;;;;;33.28;7.25;;;;;;;;;;5034713;28;20658;-66
2023/08/27 00:31:09;;;;;;;28.48;6.82;;;;;;;;;;5038506;28;20037;-67
2023/08/27 00:34:50;;;;;;;25.05;6.10;;;;;;;;;;5042107;28;20409;-66
2023/08/27 00:38:33;;;;;;;25.52;6.28;;;;;;;;;;5044449;28;20553;-67
2023/08/27 00:42:13;;;;;;;31.70;6.05;;;;;;;;;;5043930;28;20060;-67
2023/08/27 00:45:55;;;;;;;34.38;6.75;;;;;;;;;;5039826;28;20044;-67
2023/08/27 00:49:37;;;;;;;17.92;5.55;;;;;;;;;;5039798;28;20133;-68
2023/08/27 00:53:18;;;;;;;25.98;6.00;;;;;;;;;;5043649;28;20512;-67
2023/08/27 00:56:58;;;;;;;18.38;6.30;;;;;;;;;;5040523;28;20103;-66
2023/08/27 01:00:38;;;;;;;26.13;5.97;;;;;;;;;;5042495;28;20041;-66
2023/08/27 01:04:20;;;;;;;28.38;6.10;;;;;;;;;;5042877;28;20049;-65
2023/08/27 01:08:04;;;;;;;21.67;6.03;;;;;;;;;;5040525;28;20809;-66
2023/08/27 01:11:27;;;;;;;21.70;5.50;;;;;;;;;;5046428;28;20408;-68
2023/08/27 01:15:08;;;;;;;21.05;5.90;;;;;;;;;;5048845;28;20044;-68
2023/08/27 01:18:48;;;;;;;23.80;5.97;;;;;;;;;;5047993;28;20060;-67
2023/08/27 01:22:29;;;;;;;31.55;6.78;;;;;;;;;;5048258;28;20493;-66
2023/08/27 01:26:12;;;;;;;20.85;6.03;;;;;;;;;;5033886;28;20051;-67
2023/08/27 01:29:23;;;;;;;19.88;5.82;;;;;;;;;;5046708;28;20070;-66
2023/08/27 01:33:11;;;;;;;24.55;6.55;;;;;;;;;;5044947;28;20484;-66
2023/08/27 01:36:53;;;;;;;20.67;5.90;;;;;;;;;;5045398;28;20052;-66
2023/08/27 01:40:37;;;;;;;23.85;6.20;;;;;;;;;;5034612;28;20045;-66
2023/08/27 01:44:17;;;;;;;25.77;6.50;;;;;;;;;;5048648;28;20041;-66
2023/08/27 01:47:57;;;;;;;22.23;5.90;;;;;;;;;;5036157;28;20057;-68
2023/08/27 01:51:39;;;;;;;24.70;6.00;;;;;;;;;;5045454;28;20076;-66
2023/08/27 01:55:19;;;;;;;24.42;5.80;;;;;;;;;;5036487;28;20098;-66
2023/08/27 01:59:00;;;;;;;21.65;6.53;;;;;;;;;;5042142;28;20061;-66
2023/08/27 02:02:40;;;;;;;21.10;6.13;;;;;;;;;;5042149;28;20036;-66
2023/08/27 02:06:20;;;;;;;24.35;6.55;;;;;;;;;;5046122;28;20107;-67
2023/08/27 02:10:00;;;;;;;20.08;5.65;;;;;;;;;;5043035;28;20136;-66
2023/08/27 02:13:41;;;;;;;24.05;6.63;;;;;;;;;;5044681;28;20399;-65
2023/08/27 02:17:21;;;;;;;20.55;5.80;;;;;;;;;;5041713;28;20044;-65
2023/08/27 02:21:01;;;;;;;29.52;6.03;;;;;;;;;;5039081;28;20656;-65
2023/08/27 02:24:42;;;;;;;24.95;6.15;;;;;;;;;;5036504;28;20053;-65
2023/08/27 02:28:24;;;;;;;30.33;6.63;;;;;;;;;;5044454;28;20067;-66
2023/08/27 02:32:04;;;;;;;21.65;6.50;;;;;;;;;;5041877;28;20045;-65
2023/08/27 02:35:44;;;;;;;23.85;6.03;;;;;;;;;;5035985;28;20056;-64
2023/08/27 02:39:25;;;;;;;22.30;5.88;;;;;;;;;;5040955;28;20051;-68
2023/08/27 02:43:05;;;;;;;28.85;6.80;;;;;;;;;;5039939;28;20044;-67
2023/08/27 02:46:45;;;;;;;22.20;5.85;;;;;;;;;;5047074;28;20107;-67
2023/08/27 02:50:26;;;;;;;18.52;6.13;;;;;;;;;;5034835;28;20496;-67
2023/08/27 02:54:07;;;;;;;19.05;6.30;;;;;;;;;;5041302;28;20102;-68
2023/08/27 02:57:48;;;;;;;28.90;6.35;;;;;;;;;;5040721;28;20095;-67
2023/08/27 03:01:28;;;;;;;30.58;7.07;;;;;;;;;;5043471;28;20354;-67
2023/08/27 03:05:08;;;;;;;26.70;6.38;;;;;;;;;;5044490;28;20574;-67
2023/08/27 03:08:48;;;;;;;26.42;6.47;;;;;;;;;;5042905;28;20041;-68
2023/08/27 03:12:30;;;;;;;24.27;6.75;;;;;;;;;;5038744;28;20060;-66
2023/08/27 03:16:11;;;;;;;20.65;6.10;;;;;;;;;;5045364;28;20049;-66
2023/08/27 03:19:52;;;;;;;27.58;6.95;;;;;;;;;;5040993;28;20124;-66
2023/08/27 03:23:34;;;;;;;33.30;7.18;;;;;;;;;;5039736;28;20053;-66
2023/08/27 03:27:14;;;;;;;24.50;7.05;;;;;;;;;;5044170;28;20052;-65
2023/08/27 03:30:54;;;;;;;21.75;6.97;;;;;;;;;;5043362;28;20577;-65
2023/08/27 03:34:35;;;;;;;22.52;7.05;;;;;;;;;;5038200;28;20129;-66
2023/08/27 03:38:15;;;;;;;26.40;6.95;;;;;;;;;;5041446;28;20503;-66
2023/08/27 03:41:55;;;;;;;23.10;6.57;;;;;;;;;;5045361;28;20045;-66
2023/08/27 03:45:35;;;;;;;24.70;6.72;;;;;;;;;;5041120;28;20481;-65
2023/08/27 03:49:19;;;;;;;20.42;6.40;;;;;;;;;;5039604;28;20041;-65
2023/08/27 03:53:00;;;;;;;17.63;5.55;;;;;;;;;;5046403;28;20043;-67
2023/08/27 03:56:43;;;;;;;22.23;6.55;;;;;;;;;;5043675;28;20412;-66
2023/08/27 04:00:24;;;;;;;25.63;6.10;;;;;;;;;;5039891;28;20524;-68
2023/08/27 04:04:06;;;;;;;18.40;6.00;;;;;;;;;;5039662;28;20041;-68
2023/08/27 04:07:46;;;;;;;18.17;5.60;;;;;;;;;;5048826;28;20051;-66
2023/08/27 04:11:09;;;;;;;23.42;6.10;;;;;;;;;;5044465;28;20041;-66
2023/08/27 04:14:49;;;;;;;19.05;6.15;;;;;;;;;;5045956;28;20037;-67
2023/08/27 04:18:32;;;;;;;18.95;6.05;;;;;;;;;;5046220;28;20049;-66
2023/08/27 04:22:11;;;;;;;23.00;5.90;;;;;;;;;;5043678;28;20044;-66
2023/08/27 04:25:52;;;;;;;18.30;6.35;;;;;;;;;;5046572;28;20040;-66
2023/08/27 04:29:33;;;;;;;16.35;5.75;;;;;;;;;;5041567;28;20049;-68
2023/08/27 04:33:13;;;;;;;21.02;6.25;;;;;;;;;;5043803;28;20541;-67
2023/08/27 04:36:56;;;;;;;15.73;5.57;;;;;;;;;;5043400;28;20052;-67
2023/08/27 04:40:34;;;;;;;18.38;6.03;;;;;;;;;;5044491;28;20045;-68
2023/08/27 04:44:14;;;;;;;22.27;6.28;;;;;;;;;;5046861;28;20044;-67
2023/08/27 04:47:55;;;;;;;23.05;6.70;;;;;;;;;;5046034;28;20056;-67
2023/08/27 04:51:35;;;;;;;16.05;5.65;;;;;;;;;;5049912;28;20520;-67
2023/08/27 04:55:16;;;;;;;21.30;5.88;;;;;;;;;;5045596;28;20087;-66
2023/08/27 04:58:57;;;;;;;16.92;5.30;;;;;;;;;;5045149;28;20635;-67
2023/08/27 05:02:37;;;;;;;16.58;4.22;;;;;;;;;;5044846;28;20477;-69
2023/08/27 05:06:18;;;;;;;16.00;4.18;;;;;;;;;;5047396;28;20045;-68
2023/08/27 05:09:58;;;;;;;34.03;6.88;;;;;;;;;;5044178;28;20052;-72
2023/08/27 05:13:38;;;;;;;41.35;7.75;;;;;;;;;;5041524;28;20075;-71
2023/08/27 05:17:19;;;;;;;30.30;6.18;;;;;;;;;;5043273;28;20040;-77
2023/08/27 05:20:59;;;;;;;19.40;5.03;;;;;;;;;;4509447;28;15135703;-73
2023/08/27 05:24:41;;;;;;;18.98;4.50;;;;;;;;;;5048269;28;20294;-78
2023/08/27 05:28:21;;;;;;;21.35;5.00;;;;;;;;;;5045779;28;20041;-79
2023/08/27 05:32:02;;;;;;;15.10;4.20;;;;;;;;;;5049044;28;20049;-76
2023/08/27 05:35:43;;;;;;;21.85;4.88;;;;;;;;;;5047678;28;20048;-75
2023/08/27 05:39:22;;;;;;;14.80;4.10;;;;;;;;;;5047524;28;20055;-76
2023/08/27 05:43:02;;;;;;;17.85;3.92;;;;;;;;;;5045087;28;20060;-75
2023/08/27 05:46:43;;;;;;;24.60;4.82;;;;;;;;;;5043009;28;20659;-76
2023/08/27 05:50:24;;;;;;;17.48;4.00;;;;;;;;;;5045879;28;20071;-78
2023/08/27 05:54:03;;;;;;;18.42;3.90;;;;;;;;;;5040619;28;20041;-75
2023/08/27 05:57:44;;;;;;;13.48;4.15;;;;;;;;;;5050638;28;20485;-76
2023/08/27 06:01:24;;;;;;;14.55;3.70;;;;;;;;;;5037577;28;20053;-75
2023/08/27 06:05:06;;;;;;;19.90;4.00;;;;;;;;;;5041938;28;20049;-76
2023/08/27 06:08:46;;;;;;;16.50;3.75;;;;;;;;;;5034856;28;20055;-77
2023/08/27 06:12:26;;;;;;;16.77;4.53;;;;;;;;;;5038317;28;20053;-76
2023/08/27 06:16:07;;;;;;;16.77;3.45;;;;;;;;;;5029099;28;20144;-79
2023/08/27 06:19:47;;;;;;;14.88;3.65;;;;;;;;;;5041073;28;20056;-76
2023/08/27 06:23:28;;;;;;;15.70;4.18;;;;;;;;;;5036510;28;20052;-74
2023/08/27 06:27:08;;;;;;;19.88;4.00;;;;;;;;;;5036351;28;20061;-76
2023/08/27 06:30:49;;;;;;;17.92;3.65;;;;;;;;;;5039874;28;20127;-76
2023/08/27 06:34:31;;;;;;;14.23;3.88;;;;;;;;;;5034447;28;20534;-74
2023/08/27 06:38:11;;;;;;;8.50;3.05;;;;;;;;;;5035674;28;20075;-75
2023/08/27 06:41:52;;;;;;;15.98;3.97;;;;;;;;;;5037976;28;20052;-74
2023/08/27 06:45:31;;;;;;;11.98;3.60;;;;;;;;;;5037500;28;20431;-75
2023/08/27 06:49:12;;;;;;;16.08;3.35;;;;;;;;;;5036003;28;20064;-75
2023/08/27 06:52:52;;;;;;;14.77;3.42;;;;;;;;;;5041022;28;21265;-74
2023/08/27 06:56:32;;;;;;;14.05;3.33;;;;;;;;;;5037583;28;20092;-75
2023/08/27 07:00:13;;;;;;;12.30;3.80;;;;;;;;;;5039202;28;20044;-74
2023/08/27 07:03:53;;;;;;;10.32;3.50;;;;;;;;;;5040123;28;20051;-74
2023/08/27 07:07:33;;;;;;;12.63;3.50;;;;;;;;;;5036638;28;20068;-74
2023/08/27 07:11:14;;;;;;;15.20;3.28;;;;;;;;;;5038552;28;20182;-76
2023/08/27 07:14:54;;;;;;;12.23;3.63;;;;;;;;;;5035267;28;20059;-73
2023/08/27 07:18:34;;;;;;;11.80;3.35;;;;;;;;;;5040085;28;20063;-71
2023/08/27 07:22:15;;;;;;;15.20;3.38;;;;;;;;;;5039647;28;20076;-73
2023/08/27 07:25:56;;;;;;;11.05;2.97;;;;;;;;;;5037373;28;20048;-73
2023/08/27 07:29:37;;;;;;;11.60;3.42;;;;;;;;;;5041291;28;20611;-74
2023/08/27 07:33:18;;;;;;;15.93;3.30;;;;;;;;;;5035879;28;20052;-75
2023/08/27 07:36:59;;;;;;;13.85;3.20;;;;;;;;;;5038248;28;20497;-74
2023/08/27 07:40:40;;;;;;;13.45;3.45;;;;;;;;;;5039935;28;20060;-74
2023/08/27 07:44:21;;;;;;;15.70;3.40;;;;;;;;;;5039841;28;20188;-75
2023/08/27 07:48:01;;;;;;;13.40;3.72;;;;;;;;;;5035350;28;20482;-73
2023/08/27 07:51:02;;;;;;;16.00;3.63;;;;;;;;;;5033722;28;20163;-76
2023/08/27 07:53:30;;;;;;;12.68;3.60;;;;;;;;;;5040829;28;20056;-71
2023/08/27 07:55:57;;;;;;;17.10;3.47;;;;;;;;;;5034978;28;20601;-72
2023/08/27 07:58:28;;;;;;;16.48;3.40;;;;;;;;;;5039197;28;20057;-73
2023/08/27 08:00:59;;;;;;;10.80;3.47;;;;;;;;;;5042089;28;20171;-73
2023/08/27 08:03:25;;;;;;;13.10;3.22;;;;;;;;;;5024302;28;20061;-72
2023/08/27 08:05:52;;;;;;;14.80;3.40;;;;;;;;;;5039108;28;20513;-72
2023/08/27 08:08:18;;;;;;;11.73;3.55;;;;;;;;;;5037626;28;20049;-73
2023/08/27 08:10:44;;;;;;;13.55;3.88;;;;;;;;;;5014125;28;20045;-72
2023/08/27 08:13:10;;;;;;;10.88;3.42;;;;;;;;;;5032770;28;20048;-71
2023/08/27 08:15:36;;;;;;;6.78;1.80;;;;;;;;;;5022528;28;20054;-72
2023/08/27 08:18:02;;;;;;;5.75;2.13;;;;;;;;;;5026917;28;20044;-72
2023/08/27 08:20:28;;;;;;;6.35;1.50;;;;;;;;;;5013253;28;20879;-72
2023/08/27 08:22:55;;;;;;;5.13;1.77;;;;;;;;;;5030032;28;20099;-71
2023/08/27 08:25:25;;;;;;;6.60;1.58;;;;;;;;;;5034029;28;20531;-70
2023/08/27 08:27:51;;;;;;;5.25;1.48;;;;;;;;;;5032654;28;20823;-72
2023/08/27 08:30:18;;;;;;;9.70;1.90;;;;;;;;;;5032956;28;20040;-74
2023/08/27 08:32:44;;;;;;;8.45;2.03;;;;;;;;;;5032386;28;20048;-70
2023/08/27 08:35:10;;;;;;;7.18;2.20;;;;;;;;;;5034185;28;20064;-70
2023/08/27 08:37:38;;;;;;;11.20;2.85;;;;;;;;;;5018201;28;20053;-70
2023/08/27 08:40:05;;;;;;;6.38;2.10;;;;;;;;;;5038480;28;20049;-70
2023/08/27 08:42:37;;;;;;;8.23;1.80;;;;;;;;;;5034617;28;20044;-73
2023/08/27 08:45:10;;;;;;;5.25;1.55;;;;;;;;;;5041719;28;20040;-72
2023/08/27 08:47:37;;;;;;;4.50;1.50;;;;;;;;;;5038693;28;20067;-73
2023/08/27 08:50:10;;;;;;;2.25;1.35;;;;;;;;;;5000797;28;20247;-74
2023/08/27 08:52:39;;;;;;;6.78;1.40;;;;;;;;;;5027630;28;20373;-74
2023/08/27 08:55:09;;;;;;;4.10;1.20;;;;;;;;;;5045460;28;20045;-73
2023/08/27 08:57:43;;;;;;;1.70;1.10;;;;;;;;;;5040834;28;20057;-73
2023/08/27 09:00:11;;;;;;;4.82;1.10;;;;;;;;;;5043967;28;20434;-71
2023/08/27 09:02:40;;;;;;;3.03;1.23;;;;;;;;;;5042448;28;20069;-73
2023/08/27 09:05:10;;;;;;;2.65;1.15;;;;;;;;;;5024629;28;20047;-71
2023/08/27 09:07:38;;;;;;;3.92;1.10;;;;;;;;;;5031069;28;20053;-75
2023/08/27 09:10:04;;;;;;;2.20;1.20;;;;;;;;;;5016876;28;20081;-72
2023/08/27 09:13:14;;;;;;;1.85;1.00;;;;;;;;;;5041570;28;20041;-71
2023/08/27 09:16:54;;;;;;;2.30;1.10;;;;;;;;;;5046227;28;20350;-72
2023/08/27 09:20:36;;;;;;;6.45;1.10;;;;;;;;;;5023887;28;20049;-71
2023/08/27 09:23:03;;;;;;;1.63;1.10;;;;;;;;;;5033619;28;20056;-72
2023/08/27 09:25:29;;;;;;;1.73;1.05;;;;;;;;;;5031707;28;20521;-73
2023/08/27 09:27:55;;;;;;;2.40;1.10;;;;;;;;;;5034554;28;20071;-69
2023/08/27 09:30:22;;;;;;;3.42;1.00;;;;;;;;;;5038119;28;20508;-70
2023/08/27 09:32:48;;;;;;;1.15;0.80;;;;;;;;;;5033842;28;20059;-74
2023/08/27 09:35:17;;;;;;;3.53;1.15;;;;;;;;;;5042258;28;20156;-73
2023/08/27 09:37:43;;;;;;;1.98;1.10;;;;;;;;;;5045980;28;20553;-74
2023/08/27 09:40:13;;;;;;;2.42;1.02;;;;;;;;;;5040343;28;20083;-81
2023/08/27 09:42:45;;;;;;;2.47;1.00;;;;;;;;;;5051703;28;20128;-70
2023/08/27 09:45:11;;;;;;;2.97;1.10;;;;;;;;;;5040974;28;20127;-74
2023/08/27 09:47:39;;;;;;;2.42;1.10;;;;;;;;;;5039466;28;20046;-71
2023/08/27 09:50:15;;;;;;;1.77;0.98;;;;;;;;;;5042768;28;20044;-71
2023/08/27 09:52:43;;;;;;;1.52;1.10;;;;;;;;;;5031331;28;20049;-71
2023/08/27 09:55:14;;;;;;;5.15;1.10;;;;;;;;;;5022095;28;20110;-72
2023/08/27 09:57:48;;;;;;;1.75;1.10;;;;;;;;;;5029694;28;20079;-71
2023/08/27 10:00:15;;;;;;;1.83;1.05;;;;;;;;;;5029290;28;20068;-70
2023/08/27 10:02:43;;;;;;;1.50;0.98;;;;;;;;;;5028357;28;20061;-69
2023/08/27 10:05:10;;;;;;;4.88;1.20;;;;;;;;;;5029698;28;20435;-71
2023/08/27 10:07:36;;;;;;;3.30;1.13;;;;;;;;;;5036573;28;20432;-74
2023/08/27 10:10:05;;;;;;;1.75;1.05;;;;;;;;;;5020206;28;20053;-70
2023/08/27 10:12:31;;;;;;;5.78;1.30;;;;;;;;;;5031948;28;20618;-71
2023/08/27 10:14:59;;;;;;;2.67;1.20;;;;;;;;;;5014091;28;20420;-70
2023/08/27 10:17:26;;;;;;;1.67;1.20;;;;;;;;;;5026922;28;20052;-73
2023/08/27 10:19:53;;;;;;;1.80;1.20;;;;;;;;;;5026068;28;23220;-71
2023/08/27 10:22:22;;;;;;;1.35;1.10;;;;;;;;;;5037881;28;20056;-73
2023/08/27 10:24:49;;;;;;;2.75;1.27;;;;;;;;;;5028120;28;20068;-72
2023/08/27 10:27:16;;;;;;;5.28;1.30;;;;;;;;;;5030572;28;20404;-70
2023/08/27 10:29:45;;;;;;;3.22;1.17;;;;;;;;;;5010488;28;20064;-68
2023/08/27 10:32:11;;;;;;;1.20;1.10;;;;;;;;;;5018385;28;20064;-72
2023/08/27 10:35:17;;;;;;;3.15;1.50;;;;;;;;;;5018197;28;20080;-70
2023/08/27 10:38:22;;;;;;;3.08;1.40;;;;;;;;;;5016006;28;20037;-71
2023/08/27 10:40:52;;;;;;;3.22;1.30;;;;;;;;;;5019874;28;20073;-71
2023/08/27 10:43:19;;;;;;;2.88;1.30;;;;;;;;;;5038018;28;20048;-72
2023/08/27 10:45:47;;;;;;;2.47;1.20;;;;;;;;;;5026573;28;20061;-68
2023/08/27 10:48:16;;;;;;;2.03;1.30;;;;;;;;;;5032251;28;20045;-68
2023/08/27 10:50:55;;;;;;;4.60;1.10;;;;;;;;;;5022909;28;20558;-67
2023/08/27 10:53:21;;;;;;;1.48;1.10;;;;;;;;;;5037808;28;20075;-69
2023/08/27 10:55:51;;;;;;;1.85;1.20;;;;;;;;;;5020174;28;20689;-69
2023/08/27 10:58:25;;;;;;;2.50;1.40;;;;;;;;;;5026261;28;20057;-71
2023/08/27 11:01:05;;;;;;;6.30;1.30;;;;;;;;;;5038417;28;20056;-71
2023/08/27 11:04:03;;;;;;;2.28;1.23;;;;;;;;;;4998176;28;20064;-68
2023/08/27 11:07:15;;;;;;;5.93;1.40;;;;;;;;;;5010833;28;20060;-69
2023/08/27 11:10:54;;;;;;;3.08;1.35;;;;;;;;;;5023093;28;20792;-67
2023/08/27 11:14:40;;;;;;;3.63;1.30;;;;;;;;;;5035185;28;20097;-67
2023/08/27 11:18:20;;;;;;;1.35;1.10;;;;;;;;;;5039877;28;20049;-67
2023/08/27 11:21:24;;;;;;;1.52;1.00;;;;;;;;;;5040097;28;20049;-67
2023/08/27 11:25:10;;;;;;;1.65;1.10;;;;;;;;;;5044158;28;20055;-68
2023/08/27 11:28:30;;;;;;;;;;;;;;;;;;5036547;28;20528;-68
2023/08/27 11:32:11;;;;;;;1.00;0.80;;;;;;;;;;5033165;28;19928;-67
2023/08/27 11:35:52;;;;;;;5.18;0.98;;;;;;;;;;5029223;28;20041;-68
2023/08/27 11:39:39;;;;;;;3.03;1.00;;;;;;;;;;5012111;28;20130;-66
2023/08/27 11:43:17;;;;;;;2.55;1.00;;;;;;;;;;5029901;28;20080;-64
2023/08/27 11:45:45;;;;;;;19.90;1.50;;;;;;;;;;4992606;28;20060;-67
2023/08/27 11:48:50;;;;;;;6.22;1.00;;;;;;;;;;5026363;28;20813;-69
2023/08/27 11:52:31;;;;;;;1.52;0.80;;;;;;;;;;5030975;28;23512;-71
2023/08/27 11:56:12;;;;;;;3.42;1.20;;;;;;;;;;5024149;28;20385;-69
2023/08/27 11:59:54;;;;;;;1.38;1.00;;;;;;;;;;5037377;28;20069;-70
2023/08/27 12:03:34;;;;;;;2.05;0.90;;;;;;;;;;5033357;28;20346;-68
2023/08/27 12:07:15;;;;;;;3.15;1.02;;;;;;;;;;5025443;28;20064;-68
2023/08/27 12:11:04;;;;;;;1.20;0.93;;;;;;;;;;5028357;28;20120;-69
2023/08/27 12:14:45;;;;;;;2.03;0.90;;;;;;;;;;5021717;28;20045;-67
2023/08/27 12:18:32;;;;;;;1.83;0.90;;;;;;;;;;5028621;28;20061;-70
2023/08/27 12:21:48;;;;;;;;;;;;;;;;;;5046631;28;20056;-68
2023/08/27 12:25:29;;;;;;;2.55;0.93;;;;;;;;;;5038751;28;19921;-68
2023/08/27 12:29:12;;;;;;;2.47;1.05;;;;;;;;;;5032367;28;20619;-70
2023/08/27 12:32:49;;;;;;;3.72;1.08;;;;;;;;;;5036914;28;20129;-68
2023/08/27 12:36:30;;;;;;;3.92;0.88;;;;;;;;;;5037151;28;20053;-69
2023/08/27 12:40:11;;;;;;;2.70;1.00;;;;;;;;;;5042252;28;20123;-69
2023/08/27 12:43:52;;;;;;;5.38;0.93;;;;;;;;;;5042258;28;20045;-70
2023/08/27 12:47:31;;;;;;;2.45;0.93;;;;;;;;;;5036425;28;20459;-70
2023/08/27 12:51:11;;;;;;;2.28;0.73;;;;;;;;;;5021636;28;20095;-72
2023/08/27 12:54:53;;;;;;;2.65;0.70;;;;;;;;;;5029352;28;20037;-72
2023/08/27 12:58:33;;;;;;;2.47;1.00;;;;;;;;;;5025015;28;20097;-68
2023/08/27 13:02:15;;;;;;;2.22;1.08;;;;;;;;;;5032121;28;20056;-67
2023/08/27 13:05:56;;;;;;;2.80;0.90;;;;;;;;;;5034693;28;20484;-65
2023/08/27 13:09:37;;;;;;;2.08;0.75;;;;;;;;;;5035935;28;20061;-69
2023/08/27 13:13:17;;;;;;;1.58;0.60;;;;;;;;;;5033937;28;20056;-67
2023/08/27 13:16:58;;;;;;;3.13;0.80;;;;;;;;;;5022175;28;20045;-67
2023/08/27 13:20:39;;;;;;;4.65;0.80;;;;;;;;;;5019345;28;20453;-66
2023/08/27 13:24:20;;;;;;;4.32;0.80;;;;;;;;;;5032775;28;20045;-68
2023/08/27 13:27:59;;;;;;;1.88;0.70;;;;;;;;;;5020809;28;20532;-67
2023/08/27 13:31:40;;;;;;;3.22;0.80;;;;;;;;;;5023134;28;20056;-67
2023/08/27 13:35:20;;;;;;;1.52;1.00;;;;;;;;;;5034973;28;20103;-66
2023/08/27 13:39:00;;;;;;;4.43;0.80;;;;;;;;;;5021957;28;20198;-66
2023/08/27 13:42:41;;;;;;;3.85;0.73;;;;;;;;;;5039726;28;20353;-67
2023/08/27 13:46:21;;;;;;;3.85;0.80;;;;;;;;;;5002813;28;20054;-65
2023/08/27 13:50:02;;;;;;;2.65;0.70;;;;;;;;;;5023174;28;20712;-68
2023/08/27 13:53:42;;;;;;;2.47;0.80;;;;;;;;;;5034347;28;20064;-66
2023/08/27 13:57:23;;;;;;;2.97;0.90;;;;;;;;;;5012967;28;20120;-66
2023/08/27 14:01:03;;;;;;;2.60;0.88;;;;;;;;;;5010176;28;20064;-67
2023/08/27 14:04:44;;;;;;;1.70;0.65;;;;;;;;;;5020149;28;20103;-67
2023/08/27 14:08:24;;;;;;;1.50;0.55;;;;;;;;;;5037476;28;20439;-67
2023/08/27 14:12:04;;;;;;;0.57;0.55;;;;;;;;;;5034259;28;20411;-68
2023/08/27 14:15:45;;;;;;;4.80;1.05;;;;;;;;;;5041022;28;20040;-66
2023/08/27 14:19:26;;;;;;;3.75;0.90;;;;;;;;;;5041572;28;20574;-67
2023/08/27 14:23:06;;;;;;;3.13;0.73;;;;;;;;;;5037569;28;20068;-67
2023/08/27 14:26:47;;;;;;;3.25;0.80;;;;;;;;;;5035935;28;20500;-66
2023/08/27 14:30:27;;;;;;;1.00;0.70;;;;;;;;;;5042415;28;20122;-64
2023/08/27 14:34:07;;;;;;;4.25;0.70;;;;;;;;;;5042280;28;20041;-66
2023/08/27 14:37:48;;;;;;;3.17;0.80;;;;;;;;;;5041449;28;20377;-66
2023/08/27 14:41:28;;;;;;;1.50;0.70;;;;;;;;;;5034209;28;20128;-66
2023/08/27 14:45:10;;;;;;;2.78;0.80;;;;;;;;;;5028268;28;20041;-66
2023/08/27 14:48:50;;;;;;;2.67;1.05;;;;;;;;;;5024450;28;20048;-67
2023/08/27 14:52:30;;;;;;;0.93;0.57;;;;;;;;;;5042781;28;20071;-66
2023/08/27 14:56:11;;;;;;;5.20;1.00;;;;;;;;;;5017932;28;24540;-67
2023/08/27 14:59:37;;;;;;;4.90;1.00;;;;;;;;;;5041426;28;20057;-68
2023/08/27 15:03:17;;;;;;;4.35;1.00;;;;;;;;;;5041751;28;20049;-66
2023/08/27 15:06:58;;;;;;;1.48;0.65;;;;;;;;;;5037213;28;20238;-67
2023/08/27 15:10:39;;;;;;;3.70;0.65;;;;;;;;;;5043645;28;20420;-68
2023/08/27 15:14:19;;;;;;;0.77;0.52;;;;;;;;;;5026898;28;20060;-68
2023/08/27 15:17:59;;;;;;;2.05;0.65;;;;;;;;;;5038440;28;20098;-66
2023/08/27 15:21:40;;;;;;;1.33;0.90;;;;;;;;;;5033908;28;21104;-68
2023/08/27 15:25:20;;;;;;;3.50;0.70;;;;;;;;;;5043720;28;20060;-70
2023/08/27 15:29:00;;;;;;;4.50;0.80;;;;;;;;;;5039856;28;20037;-64
2023/08/27 15:32:42;;;;;;;4.25;0.77;;;;;;;;;;5016021;28;20064;-63
2023/08/27 15:36:22;;;;;;;1.95;1.00;;;;;;;;;;5028868;28;20049;-65
2023/08/27 15:40:03;;;;;;;4.70;0.80;;;;;;;;;;5039921;28;20048;-63
2023/08/27 15:43:52;;;;;;;3.80;0.80;;;;;;;;;;5039982;28;20037;-65
2023/08/27 15:47:32;;;;;;;1.67;0.88;;;;;;;;;;5048435;28;20045;-64
2023/08/27 15:51:13;;;;;;;2.95;1.15;;;;;;;;;;5042051;28;20060;-62
2023/08/27 15:54:53;;;;;;;4.75;1.10;;;;;;;;;;5016128;28;20041;-65
2023/08/27 15:58:33;;;;;;;3.15;1.20;;;;;;;;;;5033344;28;20040;-64
2023/08/27 16:02:15;;;;;;;2.72;1.00;;;;;;;;;;5024615;28;20088;-63
2023/08/27 16:05:55;;;;;;;1.60;1.00;;;;;;;;;;5038463;28;20067;-63
2023/08/27 16:09:35;;;;;;;2.60;1.10;;;;;;;;;;5040661;28;20481;-64
2023/08/27 16:13:16;;;;;;;5.32;1.30;;;;;;;;;;5038641;28;20094;-68
2023/08/27 16:16:56;;;;;;;2.35;1.10;;;;;;;;;;5044834;28;20459;-64
2023/08/27 16:20:36;;;;;;;3.92;1.25;;;;;;;;;;5034367;28;20053;-64
2023/08/27 16:24:17;;;;;;;3.75;1.30;;;;;;;;;;5039259;28;20041;-65
2023/08/27 16:28:00;;;;;;;2.60;1.10;;;;;;;;;;5038729;28;20566;-65
2023/08/27 16:31:40;;;;;;;3.53;1.40;;;;;;;;;;5042519;28;20068;-67
2023/08/27 16:35:21;;;;;;;5.68;1.50;;;;;;;;;;5030083;28;20056;-63
2023/08/27 16:39:01;;;;;;;1.88;1.23;;;;;;;;;;5038833;28;20060;-66
2023/08/27 16:42:41;;;;;;;2.97;1.50;;;;;;;;;;5045767;28;20446;-65
2023/08/27 16:46:22;;;;;;;2.55;1.23;;;;;;;;;;5038655;28;20045;-64
2023/08/27 16:50:03;;;;;;;4.75;1.48;;;;;;;;;;5039749;28;20064;-65
2023/08/27 16:53:45;;;;;;;2.90;1.20;;;;;;;;;;5033609;28;20091;-66
2023/08/27 16:57:24;;;;;;;5.85;1.30;;;;;;;;;;5028008;28;20471;-65
2023/08/27 17:01:06;;;;;;;3.35;1.40;;;;;;;;;;5037115;28;20136;-65
2023/08/27 17:04:47;;;;;;;3.25;1.50;;;;;;;;;;5047483;28;20056;-65
2023/08/27 17:08:28;;;;;;;3.17;1.30;;;;;;;;;;5041141;28;20049;-65
2023/08/27 17:11:29;;;;;;;3.97;1.08;;;;;;;;;;5040120;28;20061;-66
2023/08/27 17:14:35;;;;;;;6.07;1.15;;;;;;;;;;5032048;28;20052;-64
2023/08/27 17:18:16;;;;;;;2.88;1.20;;;;;;;;;;5041519;28;20139;-64
2023/08/27 17:21:56;;;;;;;4.40;1.40;;;;;;;;;;5040785;28;20206;-64
2023/08/27 17:25:36;;;;;;;2.10;1.02;;;;;;;;;;5038054;28;20076;-64
2023/08/27 17:29:17;;;;;;;2.38;0.82;;;;;;;;;;5046336;28;20071;-65
2023/08/27 17:32:57;;;;;;;3.45;1.00;;;;;;;;;;5019187;28;20040;-65
2023/08/27 17:36:37;;;;;;;3.95;0.82;;;;;;;;;;5023355;28;20055;-66
2023/08/27 17:40:18;;;;;;;3.83;1.30;;;;;;;;;;5036487;28;20053;-67
2023/08/27 17:43:58;;;;;;;4.70;1.05;;;;;;;;;;5043328;28;20053;-66
2023/08/27 17:47:38;;;;;;;4.60;0.90;;;;;;;;;;5048359;28;20107;-66
2023/08/27 17:51:19;;;;;;;2.78;1.15;;;;;;;;;;5017517;28;20457;-67
2023/08/27 17:55:03;;;;;;;1.42;0.90;;;;;;;;;;5040803;28;20464;-66
2023/08/27 17:58:44;;;;;;;1.55;0.70;;;;;;;;;;5042321;28;20050;-67
2023/08/27 18:02:24;;;;;;;1.70;0.93;;;;;;;;;;5040321;28;20526;-67
2023/08/27 18:06:04;;;;;;;4.07;1.00;;;;;;;;;;5050182;28;20128;-67
2023/08/27 18:09:46;;;;;;;1.90;1.10;;;;;;;;;;5028557;28;20041;-66
2023/08/27 18:13:27;;;;;;;3.63;1.10;;;;;;;;;;5041761;28;20056;-66
2023/08/27 18:17:08;;;;;;;1.98;1.08;;;;;;;;;;5029501;28;20037;-68
2023/08/27 18:20:48;;;;;;;1.83;0.90;;;;;;;;;;5048388;28;20057;-69
2023/08/27 18:24:30;;;;;;;2.30;1.10;;;;;;;;;;5023528;28;20131;-65
2023/08/27 18:28:09;;;;;;;2.80;1.20;;;;;;;;;;5020742;28;20055;-67
2023/08/27 18:31:50;;;;;;;2.25;1.13;;;;;;;;;;5040314;28;20041;-65
2023/08/27 18:35:32;;;;;;;2.10;1.33;;;;;;;;;;5036743;28;20045;-64
2023/08/27 18:39:14;;;;;;;1.55;0.80;;;;;;;;;;5034124;28;20110;-65
2023/08/27 18:42:56;;;;;;;2.25;0.90;;;;;;;;;;5021690;28;20052;-65
2023/08/27 18:46:38;;;;;;;2.33;0.90;;;;;;;;;;5043918;28;20044;-63
2023/08/27 18:50:16;;;;;;;3.55;0.98;;;;;;;;;;5029629;28;20137;-62
2023/08/27 18:53:57;;;;;;;2.60;1.10;;;;;;;;;;5037785;28;20049;-65
2023/08/27 18:57:39;;;;;;;2.17;0.90;;;;;;;;;;5033230;28;20049;-65
2023/08/27 19:01:17;;;;;;;4.15;0.80;;;;;;;;;;5035260;28;20440;-63
2023/08/27 19:04:57;;;;;;;4.57;0.93;;;;;;;;;;5040590;28;20033;-62
2023/08/27 19:08:38;;;;;;;3.15;1.17;;;;;;;;;;5044380;28;20512;-65
2023/08/27 19:12:18;;;;;;;1.98;0.93;;;;;;;;;;5037826;28;20049;-65
2023/08/27 19:15:59;;;;;;;1.73;0.80;;;;;;;;;;5044169;28;20037;-64
2023/08/27 19:19:43;;;;;;;3.45;1.17;;;;;;;;;;5040679;28;20536;-65
2023/08/27 19:23:24;;;;;;;1.75;0.90;;;;;;;;;;5039265;28;20049;-66
2023/08/27 19:27:04;;;;;;;1.10;0.90;;;;;;;;;;5042510;28;20051;-64
2023/08/27 19:30:44;;;;;;;1.50;0.90;;;;;;;;;;5046308;28;20041;-63
2023/08/27 19:34:25;;;;;;;2.08;1.00;;;;;;;;;;5023597;28;20053;-65
2023/08/27 19:38:08;;;;;;;1.73;0.90;;;;;;;;;;5039521;28;20045;-63
2023/08/27 19:41:45;;;;;;;2.03;1.17;;;;;;;;;;5032342;28;20049;-66
2023/08/27 19:45:27;;;;;;;5.60;1.10;;;;;;;;;;5042383;28;20136;-64
2023/08/27 19:49:06;;;;;;;2.55;1.00;;;;;;;;;;5028057;28;20060;-67
2023/08/27 19:52:46;;;;;;;1.70;0.88;;;;;;;;;;5022968;28;20389;-66
2023/08/27 19:56:28;;;;;;;2.45;0.88;;;;;;;;;;5019638;28;20052;-64
2023/08/27 20:00:09;;;;;;;2.35;1.10;;;;;;;;;;5025453;28;20137;-64
2023/08/27 20:03:24;;;;;;;1.48;1.00;;;;;;;;;;5022114;28;20052;-66
2023/08/27 20:07:04;;;;;;;2.40;0.85;;;;;;;;;;5037647;28;20057;-64
2023/08/27 20:10:44;;;;;;;1.42;0.90;;;;;;;;;;5037034;28;20053;-68
2023/08/27 20:14:25;;;;;;;1.98;0.90;;;;;;;;;;5040645;28;20524;-65
2023/08/27 20:18:08;;;;;;;3.65;1.10;;;;;;;;;;5025391;28;20052;-67